Time;durP1;ratioP1;P1;durP2;ratioP2;P2;SDS_P1;SDS_P2;PMS_P1;PMS_P2;Temp;Humidity;BMP_temperature;BMP_pressure;BME280_temperature;BME280_humidity;BME280_pressure;Samples;Min_cycle;Max_cycle;Signal;HPM_P1;HPM_P2
2023/03/16 00:02:09;;;;;;;10.43;2.80;;;2.50;99.90;;;;;;4994150;28;20042;-73
2023/03/16 00:04:36;;;;;;;9.65;2.45;;;2.40;99.90;;;;;;5004094;28;20091;-74
2023/03/16 00:07:03;;;;;;;8.95;2.65;;;2.40;99.90;;;;;;4998412;28;20034;-74
2023/03/16 00:09:32;;;;;;;9.40;2.95;;;2.40;99.90;;;;;;4999318;28;20041;-74
2023/03/16 00:12:04;;;;;;;8.98;2.70;;;2.30;99.90;;;;;;5000106;28;20030;-74
2023/03/16 00:14:34;;;;;;;7.72;2.47;;;2.30;99.90;;;;;;5028385;28;20042;-74
2023/03/16 00:17:00;;;;;;;9.68;2.58;;;2.30;99.90;;;;;;5008107;28;20110;-74
2023/03/16 00:19:26;;;;;;;12.80;3.53;;;2.30;99.90;;;;;;5003751;28;20082;-73
2023/03/16 00:21:52;;;;;;;13.52;3.08;;;2.30;99.90;;;;;;5021830;28;20552;-73
2023/03/16 00:24:19;;;;;;;13.95;3.65;;;2.30;99.90;;;;;;5001816;28;20342;-73
2023/03/16 00:26:46;;;;;;;14.00;3.05;;;2.30;99.90;;;;;;5001556;28;20069;-73
2023/03/16 00:29:12;;;;;;;13.10;3.17;;;2.30;99.90;;;;;;5000939;28;20109;-73
2023/03/16 00:31:44;;;;;;;9.00;3.25;;;2.30;99.90;;;;;;5002023;28;20605;-72
2023/03/16 00:34:14;;;;;;;13.15;2.90;;;2.30;99.90;;;;;;5033673;28;20022;-72
2023/03/16 00:36:41;;;;;;;11.20;2.80;;;2.30;99.90;;;;;;5003923;28;20438;-73
2023/03/16 00:39:09;;;;;;;11.15;2.63;;;2.20;99.90;;;;;;5002015;28;20042;-73
2023/03/16 00:41:37;;;;;;;11.65;2.70;;;2.30;99.90;;;;;;5002475;28;20026;-73
2023/03/16 00:44:04;;;;;;;6.88;2.25;;;2.30;99.90;;;;;;5003922;28;20422;-73
2023/03/16 00:46:31;;;;;;;10.40;2.65;;;2.20;99.90;;;;;;5002055;28;20516;-72
2023/03/16 00:48:57;;;;;;;10.27;2.67;;;2.20;99.90;;;;;;5003705;28;21022;-73
2023/03/16 00:51:23;;;;;;;9.85;2.40;;;2.20;99.90;;;;;;5002822;28;20113;-73
2023/03/16 00:53:48;;;;;;;11.82;2.45;;;2.20;99.90;;;;;;5002488;28;20114;-73
2023/03/16 00:56:15;;;;;;;12.88;3.55;;;2.20;99.90;;;;;;5002168;28;20493;-74
2023/03/16 00:58:42;;;;;;;11.90;2.45;;;2.20;99.90;;;;;;5000930;28;20030;-73
2023/03/16 01:01:19;;;;;;;8.68;2.80;;;2.20;99.90;;;;;;5003066;28;20018;-74
2023/03/16 01:03:45;;;;;;;7.68;2.28;;;2.20;99.90;;;;;;5001885;28;20035;-74
2023/03/16 01:06:15;;;;;;;16.83;3.47;;;2.20;99.90;;;;;;5001104;28;20097;-74
2023/03/16 01:08:42;;;;;;;10.98;2.92;;;2.20;99.90;;;;;;5002964;28;20522;-74
2023/03/16 01:11:15;;;;;;;10.38;2.92;;;2.20;99.90;;;;;;5002010;28;20037;-74
2023/03/16 01:13:42;;;;;;;12.50;3.47;;;2.20;99.90;;;;;;5001845;28;20669;-73
2023/03/16 01:16:09;;;;;;;9.40;3.22;;;2.10;99.90;;;;;;5003091;28;20038;-73
2023/03/16 01:18:34;;;;;;;14.52;3.38;;;2.10;99.90;;;;;;5002006;28;20414;-73
2023/03/16 01:21:05;;;;;;;11.88;3.83;;;2.10;99.90;;;;;;5001688;28;20022;-73
2023/03/16 01:23:31;;;;;;;13.50;3.35;;;2.10;99.90;;;;;;4998506;28;20044;-75
2023/03/16 01:25:58;;;;;;;20.33;4.55;;;2.10;99.90;;;;;;5003329;28;20107;-74
2023/03/16 01:28:26;;;;;;;12.77;3.30;;;2.00;99.90;;;;;;5002058;28;20033;-73
2023/03/16 01:30:54;;;;;;;12.38;4.20;;;2.00;99.90;;;;;;4985629;28;20537;-73
2023/03/16 01:33:20;;;;;;;15.68;3.60;;;2.00;99.90;;;;;;5006787;28;20486;-74
2023/03/16 01:35:52;;;;;;;14.20;3.88;;;2.00;99.90;;;;;;4985815;28;20034;-73
2023/03/16 01:38:18;;;;;;;14.80;3.47;;;2.00;99.90;;;;;;5000924;28;20502;-72
2023/03/16 01:40:44;;;;;;;13.55;3.78;;;2.00;99.90;;;;;;4999819;28;20057;-73
2023/03/16 01:43:10;;;;;;;13.60;3.63;;;2.00;99.90;;;;;;5001362;28;20025;-74
2023/03/16 01:46:14;;;;;;;10.18;3.58;;;1.90;99.90;;;;;;5000833;28;20172;-73
2023/03/16 01:48:58;;;;;;;15.05;3.90;;;1.90;99.90;;;;;;4940800;29;20039;-72
2023/03/16 01:51:31;;;;;;;14.65;4.18;;;1.90;99.90;;;;;;5006963;28;20099;-74
2023/03/16 01:54:13;;;;;;;17.35;4.05;;;1.90;99.90;;;;;;5006034;28;20052;-74
2023/03/16 01:57:03;;;;;;;14.52;3.80;;;1.90;99.90;;;;;;5003065;28;20038;-74
2023/03/16 01:59:43;;;;;;;17.08;4.07;;;1.80;99.90;;;;;;4999399;28;20033;-73
2023/03/16 02:02:11;;;;;;;20.93;5.03;;;1.80;99.90;;;;;;5000383;28;20026;-73
2023/03/16 02:05:00;;;;;;;15.30;4.20;;;1.80;99.90;;;;;;4998390;28;20045;-74
2023/03/16 02:07:28;;;;;;;13.90;4.15;;;1.80;99.90;;;;;;5000963;28;20056;-73
2023/03/16 02:09:58;;;;;;;14.90;5.78;;;1.80;99.90;;;;;;4999647;28;20054;-73
2023/03/16 02:12:24;;;;;;;13.18;4.72;;;1.70;99.90;;;;;;5000606;28;20054;-73
2023/03/16 02:14:50;;;;;;;12.57;4.95;;;1.70;99.90;;;;;;4999759;28;20030;-73
2023/03/16 02:17:20;;;;;;;13.32;4.72;;;1.70;99.90;;;;;;5016187;28;20034;-74
2023/03/16 02:19:52;;;;;;;12.35;4.40;;;1.70;99.90;;;;;;4998678;28;20022;-73
2023/03/16 02:22:19;;;;;;;11.52;5.00;;;1.70;99.90;;;;;;4998465;28;20026;-72
2023/03/16 02:24:45;;;;;;;14.65;4.20;;;1.70;99.90;;;;;;5000649;28;20038;-72
2023/03/16 02:27:17;;;;;;;13.10;4.60;;;1.70;99.90;;;;;;5002072;28;20039;-74
2023/03/16 02:29:55;;;;;;;15.55;4.40;;;1.70;99.90;;;;;;4998629;28;20399;-73
2023/03/16 02:32:23;;;;;;;14.82;4.97;;;1.60;99.90;;;;;;4999971;28;20146;-73
2023/03/16 02:34:49;;;;;;;14.38;4.40;;;1.60;99.90;;;;;;4998315;28;20528;-74
2023/03/16 02:37:15;;;;;;;14.25;4.45;;;1.60;99.90;;;;;;4997541;28;20030;-74
2023/03/16 02:39:42;;;;;;;8.73;4.30;;;1.70;99.90;;;;;;5000601;28;20511;-75
2023/03/16 02:42:13;;;;;;;13.23;4.20;;;1.70;99.90;;;;;;5000545;28;20393;-74
2023/03/16 02:44:44;;;;;;;11.43;4.43;;;1.70;99.90;;;;;;4999366;28;20040;-74
2023/03/16 02:47:14;;;;;;;;;;;1.60;99.90;;;;;;4999422;28;20030;-73
2023/03/16 02:49:44;;;;;;;13.07;4.40;;;1.60;99.90;;;;;;4999564;28;20022;-72
2023/03/16 02:52:10;;;;;;;10.43;4.40;;;1.60;99.90;;;;;;5001133;28;20034;-71
2023/03/16 02:54:36;;;;;;;15.57;5.22;;;1.60;99.90;;;;;;5000769;28;20066;-72
2023/03/16 02:57:02;;;;;;;11.32;4.90;;;1.70;99.90;;;;;;5000326;28;20684;-73
2023/03/16 02:59:28;;;;;;;13.75;4.00;;;1.60;99.90;;;;;;4983560;28;20125;-72
2023/03/16 03:01:53;;;;;;;13.07;4.97;;;1.70;99.90;;;;;;4999403;28;20022;-72
2023/03/16 03:04:22;;;;;;;10.02;3.78;;;1.70;99.90;;;;;;4998133;28;20505;-73
2023/03/16 03:06:48;;;;;;;14.48;4.55;;;1.70;99.90;;;;;;4999472;28;20041;-72
2023/03/16 03:09:14;;;;;;;12.55;4.20;;;1.60;99.90;;;;;;5002191;28;20160;-72
2023/03/16 03:11:40;;;;;;;11.68;3.92;;;1.60;99.90;;;;;;4998583;28;20030;-73
2023/03/16 03:14:06;;;;;;;10.30;3.90;;;1.60;99.90;;;;;;4998489;28;20073;-73
2023/03/16 03:16:31;;;;;;;8.70;3.53;;;1.50;99.90;;;;;;4998734;28;20073;-74
2023/03/16 03:18:58;;;;;;;8.00;3.25;;;1.50;99.90;;;;;;4997859;28;20029;-73
2023/03/16 03:21:24;;;;;;;11.80;3.83;;;1.60;99.90;;;;;;4997232;28;20036;-74
2023/03/16 03:23:50;;;;;;;5.93;3.17;;;1.60;99.90;;;;;;4998171;28;20022;-73
2023/03/16 03:26:17;;;;;;;7.88;3.28;;;1.60;99.90;;;;;;4983843;28;20395;-73
2023/03/16 03:28:43;;;;;;;7.32;2.88;;;1.50;99.90;;;;;;4999881;28;20034;-72
2023/03/16 03:31:17;;;;;;;8.95;2.85;;;1.50;99.90;;;;;;5000589;28;20046;-72
2023/03/16 03:33:43;;;;;;;8.65;2.63;;;1.50;99.90;;;;;;4999706;28;20029;-73
2023/03/16 03:36:10;;;;;;;6.72;2.92;;;1.50;99.90;;;;;;5002205;28;20379;-73
2023/03/16 03:38:36;;;;;;;10.93;2.97;;;1.50;99.90;;;;;;4999586;28;20034;-74
2023/03/16 03:41:02;;;;;;;9.18;3.05;;;1.50;99.90;;;;;;4997838;28;20026;-73
2023/03/16 03:43:28;;;;;;;8.25;2.70;;;1.40;99.90;;;;;;4996540;28;20022;-73
2023/03/16 03:45:59;;;;;;;10.23;3.03;;;1.40;99.90;;;;;;4998249;28;20029;-72
2023/03/16 03:48:26;;;;;;;6.30;2.75;;;1.40;99.90;;;;;;5004177;28;20091;-72
2023/03/16 03:50:53;;;;;;;5.45;2.55;;;1.40;99.90;;;;;;4995488;28;20045;-72
2023/03/16 03:53:19;;;;;;;11.50;2.63;;;1.40;99.90;;;;;;5001185;28;20045;-71
2023/03/16 03:55:46;;;;;;;10.70;2.72;;;1.50;99.90;;;;;;4998357;28;20581;-72
2023/03/16 03:58:12;;;;;;;6.03;2.88;;;1.50;99.90;;;;;;4999666;28;20030;-72
2023/03/16 04:00:38;;;;;;;9.75;3.42;;;1.50;99.90;;;;;;4999521;28;20044;-72
2023/03/16 04:03:05;;;;;;;7.15;2.65;;;1.50;99.90;;;;;;4999926;28;20026;-72
2023/03/16 04:05:31;;;;;;;8.10;2.83;;;1.50;99.90;;;;;;4997556;28;20022;-73
2023/03/16 04:07:56;;;;;;;8.93;2.83;;;1.50;99.90;;;;;;4997740;28;20064;-73
2023/03/16 04:10:24;;;;;;;6.75;2.83;;;1.40;99.90;;;;;;5001182;28;20048;-73
2023/03/16 04:12:50;;;;;;;6.97;2.78;;;1.40;99.90;;;;;;4999496;28;20026;-73
2023/03/16 04:15:16;;;;;;;10.98;2.60;;;1.40;99.90;;;;;;4999483;28;20042;-73
2023/03/16 04:17:42;;;;;;;8.43;2.67;;;1.50;99.90;;;;;;4997299;28;20103;-74
2023/03/16 04:20:18;;;;;;;7.47;3.03;;;1.40;99.90;;;;;;4999511;28;20018;-74
2023/03/16 04:22:44;;;;;;;5.93;2.22;;;1.40;99.90;;;;;;4997354;28;20049;-72
2023/03/16 04:25:12;;;;;;;7.78;3.00;;;1.40;99.90;;;;;;5000167;28;20034;-73
2023/03/16 04:27:37;;;;;;;6.60;2.42;;;1.40;99.90;;;;;;4996422;28;20525;-73
2023/03/16 04:30:05;;;;;;;6.20;2.47;;;1.40;99.90;;;;;;4997511;28;20034;-73
2023/03/16 04:32:33;;;;;;;12.23;2.47;;;1.40;99.90;;;;;;4999673;28;20036;-73
2023/03/16 04:34:58;;;;;;;7.57;2.95;;;1.40;99.90;;;;;;5000041;28;20034;-73
2023/03/16 04:37:24;;;;;;;8.05;3.10;;;1.40;99.90;;;;;;4999717;28;20044;-72
2023/03/16 04:39:50;;;;;;;6.28;2.80;;;1.40;99.90;;;;;;4998995;28;20105;-76
2023/03/16 04:42:16;;;;;;;8.35;2.70;;;1.30;99.90;;;;;;4997664;28;20110;-74
2023/03/16 04:44:44;;;;;;;6.78;2.65;;;1.40;99.90;;;;;;4998974;28;20084;-73
2023/03/16 04:47:12;;;;;;;6.15;2.42;;;1.30;99.90;;;;;;4999446;28;20030;-73
2023/03/16 04:49:38;;;;;;;6.05;2.35;;;1.30;99.90;;;;;;4997889;28;20411;-72
2023/03/16 04:52:05;;;;;;;8.70;3.15;;;1.30;99.90;;;;;;4998099;28;20026;-73
2023/03/16 04:54:32;;;;;;;6.25;2.88;;;1.30;99.90;;;;;;4997605;28;20033;-75
2023/03/16 04:56:59;;;;;;;6.65;2.55;;;1.40;99.90;;;;;;4999728;28;20045;-74
2023/03/16 04:59:26;;;;;;;9.15;3.35;;;1.40;99.90;;;;;;4999913;28;20030;-73
2023/03/16 05:01:52;;;;;;;5.28;2.53;;;1.40;99.90;;;;;;5001858;28;20041;-73
2023/03/16 05:04:18;;;;;;;9.05;2.30;;;1.40;99.90;;;;;;4999737;28;20088;-72
2023/03/16 05:06:44;;;;;;;7.18;2.70;;;1.40;99.90;;;;;;5000510;28;20585;-73
2023/03/16 05:09:10;;;;;;;6.75;2.67;;;1.40;99.90;;;;;;5002542;28;20463;-74
2023/03/16 05:11:36;;;;;;;7.55;2.20;;;1.40;99.90;;;;;;5002862;28;20034;-74
2023/03/16 05:14:02;;;;;;;4.20;1.95;;;1.40;99.90;;;;;;5000347;28;20076;-73
2023/03/16 05:16:29;;;;;;;11.20;3.05;;;1.40;99.90;;;;;;5010609;28;20096;-73
2023/03/16 05:18:59;;;;;;;6.68;2.20;;;1.40;99.90;;;;;;5007903;28;20073;-74
2023/03/16 05:21:25;;;;;;;6.97;2.78;;;1.40;99.90;;;;;;4985590;28;20069;-74
2023/03/16 05:23:51;;;;;;;4.97;2.50;;;1.40;99.90;;;;;;5011022;28;20025;-74
2023/03/16 05:26:17;;;;;;;9.38;2.22;;;1.40;99.90;;;;;;5007979;28;20064;-73
2023/03/16 05:28:44;;;;;;;6.43;3.20;;;1.50;99.90;;;;;;5001246;28;20029;-73
2023/03/16 05:31:10;;;;;;;4.88;2.53;;;1.50;99.90;;;;;;5002362;28;20120;-73
2023/03/16 05:33:36;;;;;;;13.52;3.00;;;1.50;99.90;;;;;;5000405;28;20042;-73
2023/03/16 05:36:03;;;;;;;5.50;2.55;;;1.60;99.90;;;;;;4999844;28;20034;-72
2023/03/16 05:38:30;;;;;;;9.68;2.13;;;1.60;99.90;;;;;;4999335;28;20065;-73
2023/03/16 05:41:00;;;;;;;9.10;3.30;;;1.60;99.90;;;;;;4985889;28;20034;-73
2023/03/16 05:43:27;;;;;;;5.93;2.10;;;1.60;99.90;;;;;;5000287;28;20026;-73
2023/03/16 05:45:54;;;;;;;5.85;2.63;;;1.60;99.90;;;;;;4999700;28;20138;-72
2023/03/16 05:48:20;;;;;;;5.47;2.38;;;1.60;99.90;;;;;;4998258;28;20105;-72
2023/03/16 05:50:49;;;;;;;10.25;2.47;;;1.60;99.90;;;;;;4996955;28;20034;-74
2023/03/16 05:53:15;;;;;;;6.40;2.20;;;1.60;99.90;;;;;;4999514;28;20026;-74
2023/03/16 05:55:41;;;;;;;5.68;2.95;;;1.60;99.90;;;;;;4985143;28;20030;-72
2023/03/16 05:58:06;;;;;;;10.43;3.47;;;1.60;99.90;;;;;;5001768;28;20034;-73
2023/03/16 06:00:32;;;;;;;6.68;2.65;;;1.60;99.90;;;;;;4999255;28;20030;-73
2023/03/16 06:02:58;;;;;;;5.30;2.78;;;1.60;99.90;;;;;;5001543;28;20057;-73
2023/03/16 06:05:24;;;;;;;7.50;3.10;;;1.60;99.90;;;;;;5000375;28;20142;-72
2023/03/16 06:07:50;;;;;;;10.27;2.72;;;1.70;99.90;;;;;;5002154;28;20030;-72
2023/03/16 06:10:17;;;;;;;6.43;2.90;;;1.60;99.90;;;;;;4999991;28;20038;-74
2023/03/16 06:12:43;;;;;;;7.10;3.38;;;1.70;99.90;;;;;;4997935;28;20121;-73
2023/03/16 06:15:10;;;;;;;9.90;3.20;;;1.70;99.90;;;;;;4984631;28;20482;-73
2023/03/16 06:17:37;;;;;;;9.23;2.97;;;1.70;99.90;;;;;;4983665;28;20038;-73
2023/03/16 06:20:09;;;;;;;9.50;3.10;;;1.70;99.90;;;;;;5001983;28;20030;-73
2023/03/16 06:22:36;;;;;;;9.00;3.17;;;1.80;99.90;;;;;;4999698;28;20038;-72
2023/03/16 06:25:02;;;;;;;9.13;3.10;;;1.80;99.90;;;;;;5000238;28;20076;-73
2023/03/16 06:27:28;;;;;;;19.02;4.05;;;1.90;99.90;;;;;;4998695;28;20473;-72
2023/03/16 06:29:54;;;;;;;9.25;2.88;;;1.90;99.90;;;;;;4998221;28;20407;-72
2023/03/16 06:32:20;;;;;;;8.45;3.13;;;1.90;99.90;;;;;;4997756;28;20030;-73
2023/03/16 06:34:46;;;;;;;11.63;3.05;;;1.80;99.90;;;;;;5001204;28;20044;-73
2023/03/16 06:37:13;;;;;;;11.25;3.17;;;1.90;99.90;;;;;;4997268;28;20030;-73
2023/03/16 06:39:39;;;;;;;10.20;3.35;;;1.90;99.90;;;;;;5001452;28;20037;-74
2023/03/16 06:42:05;;;;;;;9.18;3.90;;;1.90;99.90;;;;;;4999339;28;20092;-73
2023/03/16 06:44:31;;;;;;;10.13;3.67;;;1.90;99.90;;;;;;5000455;28;20548;-73
2023/03/16 06:46:57;;;;;;;7.53;2.92;;;1.90;99.90;;;;;;4999800;28;20034;-74
2023/03/16 06:49:23;;;;;;;10.60;3.17;;;2.00;99.90;;;;;;5000522;28;20030;-74
2023/03/16 06:51:49;;;;;;;12.63;3.58;;;1.90;99.90;;;;;;4998820;28;20049;-72
2023/03/16 06:54:14;;;;;;;11.73;3.55;;;2.00;99.90;;;;;;4999496;28;20029;-72
2023/03/16 06:56:40;;;;;;;9.55;3.08;;;1.90;99.90;;;;;;5000240;28;20041;-73
2023/03/16 06:59:06;;;;;;;14.07;4.15;;;2.00;99.90;;;;;;5004223;28;20073;-72
2023/03/16 07:01:32;;;;;;;7.97;3.25;;;2.00;99.90;;;;;;5001024;28;20057;-72
2023/03/16 07:03:58;;;;;;;10.32;3.90;;;1.90;99.90;;;;;;4998538;28;21643;-72
2023/03/16 07:06:24;;;;;;;10.52;3.83;;;1.90;99.90;;;;;;5001392;28;20064;-74
2023/03/16 07:08:50;;;;;;;6.95;2.80;;;1.90;99.90;;;;;;4985508;28;20025;-74
2023/03/16 07:11:16;;;;;;;8.50;3.25;;;1.90;99.90;;;;;;4983977;28;20037;-74
2023/03/16 07:13:43;;;;;;;11.25;3.70;;;1.90;99.90;;;;;;5000548;28;20035;-72
2023/03/16 07:16:08;;;;;;;14.00;3.75;;;2.00;99.90;;;;;;4981150;28;20041;-74
2023/03/16 07:18:36;;;;;;;11.05;4.50;;;2.00;99.90;;;;;;4981519;28;20034;-74
2023/03/16 07:21:02;;;;;;;11.82;3.67;;;2.00;99.90;;;;;;4999174;28;20026;-74
2023/03/16 07:23:28;;;;;;;7.95;3.00;;;2.50;99.90;;;;;;4999965;28;20363;-74
2023/03/16 07:25:54;;;;;;;8.25;3.60;;;2.40;99.90;;;;;;4998290;28;20037;-72
2023/03/16 07:28:20;;;;;;;8.27;2.83;;;2.40;99.90;;;;;;4999600;28;20192;-72
2023/03/16 07:30:47;;;;;;;11.70;3.47;;;2.40;99.90;;;;;;5002907;28;20165;-73
2023/03/16 07:33:13;;;;;;;6.35;2.90;;;2.40;99.90;;;;;;4997861;28;20398;-72
2023/03/16 07:35:39;;;;;;;9.55;3.55;;;2.50;99.90;;;;;;4999979;28;20507;-74
2023/03/16 07:38:04;;;;;;;7.80;2.95;;;2.60;99.90;;;;;;5000968;28;20087;-73
2023/03/16 07:40:31;;;;;;;9.10;3.03;;;2.60;99.90;;;;;;5000958;28;20031;-74
2023/03/16 07:42:56;;;;;;;11.43;4.00;;;2.60;99.90;;;;;;5000218;28;20065;-74
2023/03/16 07:45:22;;;;;;;9.57;2.80;;;2.60;99.90;;;;;;4994785;28;20116;-71
2023/03/16 07:47:48;;;;;;;9.20;3.00;;;2.60;99.90;;;;;;4984482;28;20035;-72
2023/03/16 07:50:15;;;;;;;10.45;2.92;;;2.60;99.90;;;;;;5016756;28;20033;-73
2023/03/16 07:52:42;;;;;;;8.52;3.20;;;2.60;99.90;;;;;;4994008;28;20029;-72
2023/03/16 07:55:10;;;;;;;12.25;3.40;;;3.60;99.90;;;;;;5005417;28;21674;-73
2023/03/16 07:57:38;;;;;;;6.72;2.50;;;3.70;99.90;;;;;;4997660;28;20030;-73
2023/03/16 08:00:06;;;;;;;9.73;3.03;;;3.40;99.90;;;;;;4997787;28;20022;-72
2023/03/16 08:02:31;;;;;;;5.70;3.10;;;3.20;99.90;;;;;;4992731;28;20118;-71
2023/03/16 08:04:57;;;;;;;9.43;2.88;;;3.10;99.90;;;;;;4996714;28;20057;-72
2023/03/16 08:07:23;;;;;;;9.02;2.78;;;3.10;99.90;;;;;;4996161;28;20038;-71
2023/03/16 08:09:50;;;;;;;8.65;2.58;;;3.10;99.90;;;;;;4995843;28;20044;-72
2023/03/16 08:12:16;;;;;;;9.55;2.63;;;3.10;99.90;;;;;;4994229;28;20037;-74
2023/03/16 08:14:44;;;;;;;9.00;3.05;;;3.10;99.90;;;;;;4997333;28;20061;-73
2023/03/16 08:17:11;;;;;;;8.27;2.80;;;3.20;99.90;;;;;;4997826;28;20124;-72
2023/03/16 08:19:37;;;;;;;7.75;3.00;;;3.20;99.90;;;;;;4981635;28;20125;-76
2023/03/16 08:22:04;;;;;;;6.72;2.70;;;3.20;99.90;;;;;;5028413;28;20553;-75
2023/03/16 08:24:31;;;;;;;11.23;3.35;;;3.20;99.90;;;;;;4997870;28;20036;-74
2023/03/16 08:26:58;;;;;;;11.07;2.75;;;3.20;99.90;;;;;;4995816;28;20034;-73
2023/03/16 08:29:25;;;;;;;8.57;3.13;;;3.30;99.90;;;;;;4998775;28;20021;-73
2023/03/16 08:31:57;;;;;;;7.05;2.72;;;3.30;99.90;;;;;;4998071;28;20032;-74
2023/03/16 08:34:23;;;;;;;11.63;3.13;;;3.40;99.90;;;;;;5000559;28;20514;-73
2023/03/16 08:36:49;;;;;;;9.98;2.70;;;3.40;99.90;;;;;;5006603;28;20054;-74
2023/03/16 08:39:15;;;;;;;5.03;2.60;;;3.50;99.90;;;;;;5013965;28;20033;-73
2023/03/16 08:41:42;;;;;;;7.72;2.53;;;3.50;99.90;;;;;;5005031;28;20023;-72
2023/03/16 08:44:11;;;;;;;7.07;2.70;;;3.50;99.90;;;;;;5006381;28;20025;-72
2023/03/16 08:46:39;;;;;;;11.85;2.45;;;3.60;99.90;;;;;;5008205;28;20030;-73
2023/03/16 08:49:08;;;;;;;6.50;2.55;;;3.60;99.90;;;;;;5006357;28;20124;-73
2023/03/16 08:51:34;;;;;;;6.25;2.70;;;3.70;99.90;;;;;;5002962;28;20049;-73
2023/03/16 08:54:00;;;;;;;5.40;2.40;;;3.70;99.90;;;;;;4983670;28;21128;-75
2023/03/16 08:56:27;;;;;;;16.88;3.25;;;3.80;99.90;;;;;;5007217;28;20478;-75
2023/03/16 08:58:53;;;;;;;7.95;2.47;;;3.90;99.90;;;;;;5000569;28;20061;-72
2023/03/16 09:01:19;;;;;;;7.72;2.65;;;3.90;99.90;;;;;;5003245;28;20493;-73
2023/03/16 09:03:45;;;;;;;10.32;2.92;;;3.90;99.90;;;;;;5001197;28;20037;-72
2023/03/16 09:06:13;;;;;;;8.65;2.92;;;4.00;99.90;;;;;;5003627;28;20126;-73
2023/03/16 09:08:40;;;;;;;7.93;2.53;;;4.10;99.90;;;;;;5001393;28;20030;-73
2023/03/16 09:11:09;;;;;;;9.18;2.50;;;4.20;99.90;;;;;;5001711;28;20109;-72
2023/03/16 09:13:37;;;;;;;6.75;2.45;;;4.30;99.90;;;;;;5002794;28;20026;-73
2023/03/16 09:16:04;;;;;;;8.82;2.80;;;4.40;99.90;;;;;;5004668;28;20025;-73
2023/03/16 09:18:31;;;;;;;6.32;2.35;;;4.50;99.90;;;;;;5001938;28;20042;-72
2023/03/16 09:21:00;;;;;;;7.35;2.55;;;4.60;99.90;;;;;;5001421;28;20033;-76
2023/03/16 09:23:27;;;;;;;9.63;2.20;;;4.60;99.90;;;;;;5001855;28;20045;-72
2023/03/16 09:25:55;;;;;;;9.57;2.58;;;4.70;99.90;;;;;;5000762;28;20046;-72
2023/03/16 09:28:26;;;;;;;6.80;2.60;;;4.70;99.90;;;;;;5000216;28;20113;-73
2023/03/16 09:30:55;;;;;;;8.20;2.50;;;4.90;99.90;;;;;;5001162;28;20080;-73
2023/03/16 09:33:23;;;;;;;6.30;1.92;;;5.00;99.90;;;;;;5003635;28;20472;-74
2023/03/16 09:35:50;;;;;;;7.68;2.28;;;5.10;99.90;;;;;;5002892;28;20050;-73
2023/03/16 09:38:17;;;;;;;6.78;1.90;;;5.20;99.90;;;;;;4999230;28;20034;-74
2023/03/16 09:40:47;;;;;;;6.40;2.25;;;5.30;99.90;;;;;;4985958;28;20073;-73
2023/03/16 09:43:31;;;;;;;5.55;1.70;;;5.50;99.90;;;;;;5001442;28;20034;-73
2023/03/16 09:46:06;;;;;;;4.85;1.67;;;5.60;99.90;;;;;;5003141;28;20025;-74
2023/03/16 09:48:36;;;;;;;6.63;1.50;;;5.80;99.90;;;;;;5015462;28;20407;-73
2023/03/16 09:51:06;;;;;;;3.42;1.30;;;6.00;99.90;;;;;;5002832;28;20022;-74
2023/03/16 09:53:38;;;;;;;5.03;1.65;;;6.20;99.90;;;;;;5002160;28;20038;-74
2023/03/16 09:56:07;;;;;;;5.55;1.60;;;6.20;99.90;;;;;;5002386;28;20402;-74
2023/03/16 10:02:03;;;;;;;4.40;1.23;;;6.60;99.20;;;;;;5002581;28;20031;-74
2023/03/16 10:04:56;;;;;;;6.03;1.73;;;6.60;98.20;;;;;;5000407;28;20117;-74
2023/03/16 10:07:41;;;;;;;7.25;2.10;;;6.80;95.50;;;;;;4999082;28;20494;-73
2023/03/16 10:10:32;;;;;;;4.15;1.40;;;6.90;96.10;;;;;;5000853;28;20058;-74
2023/03/16 10:13:04;;;;;;;2.28;1.25;;;7.00;94.30;;;;;;4999988;28;20030;-74
2023/03/16 10:15:50;;;;;;;6.57;1.35;;;7.20;92.20;;;;;;4999592;28;20134;-75
2023/03/16 10:18:23;;;;;;;3.30;1.35;;;7.30;92.10;;;;;;4996503;28;20026;-75
2023/03/16 10:20:51;;;;;;;9.00;1.75;;;7.30;91.60;;;;;;5000509;28;20026;-75
2023/03/16 10:23:23;;;;;;;4.35;1.45;;;7.40;90.80;;;;;;5006420;28;20040;-73
2023/03/16 10:25:51;;;;;;;5.75;1.40;;;7.40;88.70;;;;;;5001516;28;20030;-73
2023/03/16 10:28:26;;;;;;;4.50;1.13;;;7.40;88.00;;;;;;4997571;28;20034;-73
2023/03/16 10:30:56;;;;;;;2.83;1.13;;;7.50;86.20;;;;;;4998525;28;20031;-74
2023/03/16 10:33:30;;;;;;;2.97;1.10;;;7.60;86.60;;;;;;4999844;28;20490;-73
2023/03/16 10:35:58;;;;;;;6.03;1.27;;;7.70;87.20;;;;;;4999512;28;20088;-73
2023/03/16 10:38:29;;;;;;;6.88;1.58;;;7.90;85.50;;;;;;4999678;28;20044;-75
2023/03/16 10:40:59;;;;;;;5.43;1.52;;;8.00;83.70;;;;;;4998976;28;20029;-73
2023/03/16 10:43:27;;;;;;;6.68;1.40;;;8.10;79.60;;;;;;4999330;28;20034;-74
2023/03/16 10:46:00;;;;;;;6.35;1.48;;;8.10;76.30;;;;;;5001833;28;20022;-73
2023/03/16 10:48:33;;;;;;;6.85;1.52;;;8.10;74.70;;;;;;5000933;28;20129;-74
2023/03/16 10:51:03;;;;;;;4.75;1.20;;;8.10;76.90;;;;;;4999660;28;20500;-73
2023/03/16 10:53:33;;;;;;;6.05;1.10;;;8.00;73.20;;;;;;4998241;28;20406;-73
2023/03/16 10:56:07;;;;;;;4.40;1.17;;;8.10;72.30;;;;;;4999850;28;20540;-74
2023/03/16 10:58:34;;;;;;;4.90;0.90;;;8.20;71.10;;;;;;5000794;28;20049;-74
2023/03/16 11:01:00;;;;;;;6.50;0.98;;;8.30;67.90;;;;;;5002772;28;20084;-74
2023/03/16 11:03:27;;;;;;;5.00;0.90;;;8.50;67.40;;;;;;5028868;28;20057;-75
2023/03/16 11:06:01;;;;;;;8.75;1.15;;;8.60;67.70;;;;;;4995539;28;20053;-74
2023/03/16 11:08:31;;;;;;;4.30;1.15;;;8.90;67.20;;;;;;5000688;28;20057;-74
2023/03/16 11:11:06;;;;;;;5.55;0.88;;;9.20;64.20;;;;;;5000402;28;20042;-74
2023/03/16 11:13:36;;;;;;;4.40;1.15;;;9.70;63.30;;;;;;5000437;28;20034;-74
2023/03/16 11:16:23;;;;;;;5.00;0.77;;;10.20;58.00;;;;;;5001754;28;20038;-74
2023/03/16 11:18:59;;;;;;;2.25;0.80;;;10.60;55.90;;;;;;5001244;28;20041;-73
2023/03/16 11:21:45;;;;;;;2.13;0.57;;;10.90;56.20;;;;;;4999973;28;20217;-75
2023/03/16 11:24:51;;;;;;;5.30;0.90;;;11.30;55.70;;;;;;5001368;28;20398;-74
2023/03/16 11:27:21;;;;;;;3.63;0.85;;;11.70;56.40;;;;;;5001604;28;20034;-73
2023/03/16 11:30:05;;;;;;;2.75;1.08;;;12.00;53.80;;;;;;4988986;28;20028;-75
2023/03/16 11:32:40;;;;;;;5.93;0.80;;;12.00;52.10;;;;;;5006160;28;20033;-76
2023/03/16 11:35:13;;;;;;;4.25;1.13;;;12.30;52.50;;;;;;5002904;28;20583;-75
2023/03/16 11:37:41;;;;;;;2.75;0.90;;;12.00;53.00;;;;;;5001197;28;20084;-76
2023/03/16 11:40:47;;;;;;;8.00;1.20;;;11.90;51.30;;;;;;4997962;28;20026;-74
2023/03/16 11:43:26;;;;;;;3.38;0.90;;;11.60;51.80;;;;;;4922684;29;20071;-74
2023/03/16 11:46:16;;;;;;;3.45;0.90;;;11.00;52.60;;;;;;4922898;29;20032;-74
2023/03/16 11:49:07;;;;;;;3.55;1.30;;;10.70;53.90;;;;;;4908531;29;20048;-75
2023/03/16 11:51:55;;;;;;;2.33;1.20;;;10.50;54.40;;;;;;4906812;29;20036;-73
2023/03/16 11:54:30;;;;;;;4.57;1.30;;;10.40;54.00;;;;;;4913672;29;20044;-73
2023/03/16 11:57:33;;;;;;;5.28;1.20;;;10.30;53.30;;;;;;4906283;29;20386;-74
2023/03/16 12:00:21;;;;;;;5.05;1.00;;;10.40;54.80;;;;;;4906995;29;20078;-74
2023/03/16 12:02:54;;;;;;;3.42;1.38;;;10.20;54.30;;;;;;4922662;29;20032;-73
2023/03/16 12:05:41;;;;;;;3.38;1.10;;;10.20;55.00;;;;;;4938463;29;20024;-76
2023/03/16 12:08:24;;;;;;;3.00;0.90;;;10.30;54.20;;;;;;4911333;29;20062;-74
2023/03/16 12:11:11;;;;;;;5.00;1.30;;;10.40;54.50;;;;;;4909644;29;20064;-74
2023/03/16 12:13:57;;;;;;;2.92;0.90;;;10.40;54.40;;;;;;4924743;29;20659;-75
2023/03/16 12:16:37;;;;;;;9.02;2.75;;;10.40;54.30;;;;;;4930091;29;20027;-77
2023/03/16 12:19:07;;;;;;;4.93;1.30;;;10.50;52.70;;;;;;4954005;28;20038;-76
2023/03/16 12:21:38;;;;;;;5.15;1.50;;;10.40;51.70;;;;;;4987783;28;20257;-76
2023/03/16 12:24:15;;;;;;;3.35;1.17;;;10.30;53.40;;;;;;5032113;28;20030;-75
2023/03/16 12:26:42;;;;;;;3.05;0.82;;;10.30;52.40;;;;;;5002964;28;20041;-77
2023/03/16 12:29:36;;;;;;;4.30;1.38;;;10.30;52.40;;;;;;5000228;28;20029;-77
2023/03/16 12:32:20;;;;;;;3.53;0.98;;;10.20;50.50;;;;;;5004155;28;20041;-77
2023/03/16 12:34:55;;;;;;;3.72;0.90;;;10.20;51.80;;;;;;5002120;28;20022;-76
2023/03/16 12:37:26;;;;;;;4.45;0.98;;;10.10;50.30;;;;;;4988457;28;20500;-76
2023/03/16 12:40:14;;;;;;;4.07;0.90;;;10.00;51.10;;;;;;5003315;28;20498;-77
2023/03/16 12:43:05;;;;;;;3.50;1.05;;;9.90;50.20;;;;;;4985558;28;20026;-76
2023/03/16 12:45:36;;;;;;;5.68;1.00;;;9.90;50.90;;;;;;4985075;28;20046;-77
2023/03/16 12:48:13;;;;;;;4.63;0.70;;;9.70;50.40;;;;;;4985557;28;20510;-75
2023/03/16 12:50:58;;;;;;;3.20;1.00;;;9.70;51.40;;;;;;5019671;28;20520;-75
2023/03/16 12:53:27;;;;;;;3.35;0.70;;;9.70;51.70;;;;;;5003891;28;20044;-76
2023/03/16 12:55:55;;;;;;;1.65;0.70;;;9.70;51.60;;;;;;4985201;28;20088;-77
2023/03/16 12:58:23;;;;;;;3.67;0.85;;;9.70;50.90;;;;;;4983939;28;20025;-75
2023/03/16 13:00:56;;;;;;;2.40;0.85;;;9.60;49.90;;;;;;5001730;28;20427;-75
2023/03/16 13:03:24;;;;;;;6.70;1.02;;;9.60;50.20;;;;;;5006924;28;20105;-77
2023/03/16 13:05:58;;;;;;;3.90;0.80;;;9.50;49.00;;;;;;5002623;28;20057;-75
2023/03/16 13:08:24;;;;;;;4.10;0.95;;;9.60;48.70;;;;;;5002749;28;20061;-77
2023/03/16 13:11:06;;;;;;;4.65;0.75;;;9.60;49.70;;;;;;5003706;28;20037;-76